Weather observations for the past three days for
Stanley Municipal Airport
Metric (Imperial)
Date Time (cdt) Wind (kph) Vis. (km) Weather Sky Cond. Temperature (ºC) Relative Humidity Wind Chill (°C) Heat Index (°C) Pressure Precipitation (cm)
Air Dwpt 6 hour altimeter (cm) sea level (mb) 1 hr 3 hr 6 hr
Max. Min.
10 00:55 NE 15 16.09 A Few Clouds FEW044 4 -5 52% 1 76.48 0.0
10 00:35 NE 13 16.09 Partly Cloudy SCT044 4 -6 48% 1 76.45 0.0
10 00:15 NE 11 16.09 Partly Cloudy FEW036 SCT045 5 -6 45% 3 76.45 0.0
09 23:55 NE 13 16.09 A Few Clouds FEW047 6 -6 42% 4 76.43 0.0
09 23:35 NE 13 16.09 Partly Cloudy SCT047 5 -5 49% 2 76.4 0.0
09 23:15 N 13 16.09 Partly Cloudy SCT046 5 -5 49% 2 76.4 0.0
09 22:55 N 17 16.09 Partly Cloudy FEW036 SCT046 6 -5 46% 3 76.38 0.0
09 22:35 N 17 16.09 A Few Clouds FEW044 FEW050 7 -6 39% 4 76.35 0.0
09 22:15 N 15 16.09 Fair CLR 7 -6 39% 5 76.33 0.0
09 21:55 N 15 16.09 Fair CLR 8 -6 37% 6 76.33 0.0
09 21:35 N 17 16.09 Fair CLR 9 -6 34% 7 76.3 0.0
09 21:15 N 13 9.66 Fair with Haze CLR 10 -7 30% 8 76.28 0.0
09 20:55 N 20 0.40 Sky Obscured with Haze VV002 11 -8 26% 76.25 0.0
09 20:35 N 20 G 31 16.09 Fair CLR 13 -8 23% 76.23 0.0
09 20:15 N 22 G 33 16.09 Fair CLR 13 -8 23% 76.2 0.0
09 19:55 N 30 16.09 Fair CLR 14 -9 20% 76.2 0.0
09 19:35 N 31 G 41 16.09 Fair CLR 14 -9 20% 76.17 0.0
09 19:15 N 33 G 44 16.09 Fair and Breezy CLR 15 -9 18% 76.17 0.0
09 18:55 N 28 G 46 16.09 Fair CLR 15 -8 20% 76.17 0.0
09 18:35 NW 33 16.09 Fair and Breezy CLR 15 -8 20% 76.17 0.0
09 18:15 NW 30 G 41 16.09 Fair CLR 14 -8 21% 76.15 0.0
09 17:55 NW 31 16.09 Fair CLR 14 -8 21% 76.15 0.0
09 17:35 NW 31 G 43 16.09 Fair CLR 15 -8 20% 76.17 0.0
09 17:15 NW 24 G 44 16.09 Fair CLR 15 -9 18% 76.17 0.0
09 16:55 NW 24 G 46 16.09 Fair CLR 15 -8 20% 76.17 0.0
09 16:35 NW 35 G 46 16.09 Fair and Breezy CLR 15 -9 18% 76.17 0.0
09 16:15 NW 24 G 50 16.09 Fair CLR 14 -9 20% 76.17 0.0
09 15:55 N 33 G 43 16.09 Fair and Breezy CLR 14 -9 20% 76.2 0.0
09 15:35 NW 30 G 43 16.09 Fair CLR 14 -9 20% 76.2 0.0
09 15:15 NW 28 16.09 Fair CLR 14 -9 20% 76.2 0.0
09 14:55 NW 26 G 41 16.09 Fair CLR 14 -9 20% 76.2 0.0
09 14:35 NW 26 G 46 16.09 Fair CLR 13 -9 21% 76.2 0.0
09 14:15 N 26 G 41 16.09 Fair CLR 13 -8 23% 76.2 0.0
09 13:55 N 20 G 37 16.09 Fair CLR 12 -8 24% 76.2 0.0
09 13:35 NW 24 G 41 16.09 Fair CLR 12 -8 24% 76.2 0.0
09 13:15 N 19 G 35 16.09 Fair CLR 12 -8 24% 76.2 0.0
09 12:55 N 24 16.09 Fair CLR 12 -8 24% 76.2 0.0
09 12:35 NW 17 G 35 16.09 Fair CLR 11 -7 28% 76.2 0.0
09 12:15 NW 15 G 35 16.09 Fair CLR 10 -7 30% 8 76.2 0.0
09 11:55 NW 22 16.09 Fair CLR 11 -7 28% 76.2 0.0
09 11:35 NW 24 16.09 Fair CLR 10 -6 32% 7 76.2 0.0
09 11:15 N 17 G 31 16.09 Fair CLR 10 -5 35% 8 76.2 0.0
09 10:55 N 22 16.09 Fair CLR 9 -4 40% 6 76.2 0.0
09 10:35 N 24 16.09 Fair CLR 8 -4 43% 5 76.2 0.0
09 10:15 NW 13 16.09 Fair CLR 8 -4 43% 6 76.17 0.0
09 09:55 N 11 16.09 Fair CLR 7 -3 49% 5 76.17 0.0
09 09:35 N 15 16.09 Fair CLR 6 -2 57% 3 76.17 0.0
09 09:15 N 11 16.09 Fair CLR 6 -1 61% 4 76.17 0.0
09 08:55 N 19 16.09 A Few Clouds FEW037 5 0 70% 2 76.15 0.0
09 08:35 N 19 16.09 A Few Clouds FEW037 4 0 75% 0 76.15 0.0
09 08:15 N 17 16.09 Partly Cloudy SCT039 4 0 75% 1 76.12 0.0
09 07:55 N 15 16.09 A Few Clouds FEW039 3 0 81% -0 76.1 0.0
09 07:35 N 15 16.09 Fair CLR 2 0 87% -2 76.07 0.0
09 07:15 N 13 16.09 Fair CLR 1 0 93% -2 76.05 0.0
09 06:55 N 13 16.09 Fair CLR 1 -1 87% -2 76 0.0
09 06:35 N 13 16.09 Fair CLR 1 -1 87% -2 75.97 0.0
09 06:15 N 11 16.09 Fair CLR 1 -1 87% -2 75.95 0.0
09 05:55 N 13 16.09 Fair CLR 1 -1 87% -2 75.92 0.0
09 05:35 N 17 16.09 Fair CLR 1 -1 87% -3 75.92 0.0
09 05:15 N 15 16.09 Fair CLR 2 0 87% -2 75.9 0.0
09 04:55 N 17 16.09 Fair CLR 1 1 100% -3 75.9 0.0
09 04:35 N 17 16.09 Fair CLR 1 1 100% -3 75.87 0.0
09 04:15 N 17 16.09 Fair CLR 1 1 100% -3 75.84 0.0
09 03:55 N 17 16.09 Fair CLR 1 1 100% -3 75.84 0.0
09 03:35 N 19 16.09 Fair CLR 2 2 100% -2 75.82 0.0
09 03:15 NW 17 16.09 Fair CLR 1 1 100% -3 75.77 0.0
09 02:55 NW 13 16.09 A Few Clouds FEW039 1 1 100% -2 75.77 0.0
09 02:35 NW 15 16.09 A Few Clouds FEW042 1 1 100% -3 75.77 0.0
09 02:15 NW 15 16.09 Fair CLR 2 2 100% -2 75.74 0.0
09 01:55 NW 13 16.09 Fair CLR 2 2 100% -1 75.74 0.0
09 01:35 N 9 16.09 Fair CLR 4 3 93% 2 75.74 0.0
09 01:15 N 11 16.09 Fair CLR 4 4 100% 2 75.72 0.0
09 00:55 N 9 16.09 Fair CLR 5 4 93% 3 75.72 0.0
09 00:35 N 13 16.09 Fair CLR 5 4 93% 2 75.69 0.0
09 00:15 N 13 16.09 Fair CLR 4 4 100% 1 75.69 0.0
08 23:55 N 11 16.09 A Few Clouds FEW044 FEW120 5 5 100% 3 75.67 0.0
08 23:35 N 13 16.09 Mostly Cloudy SCT045 BKN120 6 5 93% 4 75.69 0.0
08 23:15 NW 13 16.09 Mostly Cloudy SCT047 BKN120 6 6 100% 4 75.67 0.0
08 22:55 NW 9 16.09 Partly Cloudy FEW048 SCT120 7 7 100% 5 75.67 0.0
08 22:35 NW 7 16.09 Mostly Cloudy SCT075 BKN100 BKN120 7 7 100% 6 75.64 0.0
08 22:15 N 7 16.09 Overcast FEW045 BKN055 OVC075 8 7 93% 7 75.59 0.0
08 21:55 N 6 16.09 Light Drizzle FEW036 BKN044 OVC050 9 7 87% 75.57 0.0
08 21:35 N 9 16.09 Light Rain SCT037 BKN047 OVC055 9 7 87% 8 75.57 0.0
08 21:15 N 17 16.09 Light Rain SCT048 OVC055 10 5 71% 8 75.54 0.0
08 20:55 NE 20 G 37 16.09 Mostly Cloudy SCT055 BKN065 11 3 58% 75.54 0.0
08 20:35 NE 20 G 35 16.09 Mostly Cloudy SCT065 BKN090 12 3 54% 75.54 0.0
08 20:15 NE 31 16.09 Mostly Cloudy FEW050 FEW065 BKN090 13 2 47% 75.49 0.0
08 19:55 N 37 16.09 Mostly Cloudy and Breezy BKN050 BKN060 BKN085 14 2 44% 75.51 0.0
08 19:35 N 37 G 56 16.09 Mostly Cloudy and Breezy SCT060 BKN075 16 0 34% 75.49 0.0
08 19:15 NW 39 G 59 16.09 Mostly Cloudy and Breezy FEW047 FEW065 BKN080 17 0 32% 75.44 0.0
08 18:55 NW 39 G 72 16.09 Mostly Cloudy and Breezy FEW047 SCT065 BKN075 18 -1 28% 75.39 0.0
08 18:35 NW 44 G 59 16.09 Mostly Cloudy and Windy BKN100 20 -4 20% 75.31 0.0
08 18:15 W 28 G 50 16.09 Fair CLR 20 -3 21% 75.29 0.0
08 17:55 NW 28 G 43 16.09 A Few Clouds FEW100 19 -3 22% 75.31 0.0
08 17:35 NW 33 G 52 16.09 Fair and Breezy CLR 20 -3 21% 75.34 0.0
08 17:15 NW 31 G 44 16.09 A Few Clouds FEW100 21 -3 20% 75.34 0.0
08 16:55 W 44 G 57 16.09 A Few Clouds and Windy FEW100 21 -3 20% 75.36 0.0
08 16:35 W 33 G 63 16.09 A Few Clouds and Breezy FEW090 20 -2 23% 75.39 0.0
08 16:15 NW 33 G 50 16.09 Fair and Breezy CLR 20 -3 21% 75.41 0.0
08 15:55 W 46 G 65 16.09 A Few Clouds and Windy FEW090 21 -3 20% 75.41 0.0
08 15:35 W 44 G 54 16.09 Partly Cloudy and Windy SCT090 20 -3 21% 75.46 0.0
08 15:15 NW 31 G 52 16.09 Partly Cloudy SCT090 20 -3 21% 75.46 0.0
08 14:55 W 44 G 56 16.09 A Few Clouds and Windy FEW095 21 -3 20% 75.49 0.0
08 14:35 NW 35 G 50 16.09 A Few Clouds and Breezy FEW090 20 -3 21% 75.49 0.0
08 14:15 NW 39 G 52 16.09 A Few Clouds and Breezy FEW090 20 -3 21% 75.51 0.0
08 13:55 NW 37 G 48 16.09 Partly Cloudy and Breezy SCT080 SCT095 20 -2 23% 75.57 0.0
08 13:35 NW 35 16.09 A Few Clouds and Breezy FEW075 FEW085 19 -2 24% 75.59 0.0
08 13:15 W 33 16.09 A Few Clouds and Breezy FEW070 FEW085 19 -2 24% 75.62 0.0
08 12:55 NW 33 G 48 16.09 A Few Clouds and Breezy FEW070 19 -1 26% 75.64 0.0
08 12:35 NW 30 G 44 16.09 Fair CLR 18 -1 28% 75.64 0.0
08 12:15 NW 33 16.09 Fair and Breezy CLR 18 -1 28% 75.67 0.0
08 11:55 N 24 G 39 16.09 Fair CLR 17 -1 30% 75.69 0.0
08 11:35 NW 31 G 41 16.09 Fair CLR 17 -1 30% 75.69 0.0
08 11:15 N 28 G 46 16.09 Fair CLR 16 -1 31% 75.72 0.0
08 10:55 NW 26 G 41 16.09 Fair CLR 16 -1 31% 75.72 0.0
08 10:35 N 31 G 44 16.09 Fair CLR 16 -1 31% 75.72 0.0
08 10:15 NW 28 16.09 Fair CLR 16 -1 31% 75.72 0.0
08 09:55 NW 35 16.09 Fair and Breezy CLR 15 -2 31% 75.72 0.0
08 09:35 N 33 16.09 Fair and Breezy CLR 14 -1 36% 75.72 0.0
08 09:15 NW 31 16.09 Fair CLR 14 -1 36% 75.69 0.0
08 08:55 NW 28 16.09 Fair CLR 13 -2 36% 75.69 0.0
08 08:35 NW 24 16.09 Fair CLR 11 -2 41% 75.69 0.0
08 08:15 NW 26 16.09 Fair CLR 10 -2 43% 7 75.69 0.0
08 07:55 NW 24 16.09 Fair CLR 9 -2 46% 6 75.67 0.0
08 07:35 NW 20 16.09 Fair CLR 8 -3 46% 5 75.64 0.0
08 07:15 NW 19 16.09 Fair CLR 6 -3 53% 3 75.64 0.0
08 06:55 NW 20 16.09 Fair CLR 5 -3 57% 1 75.62 0.0
08 06:35 NW 20 16.09 Fair CLR 3 -3 65% -1 75.59 0.0
08 06:15 NW 20 16.09 Fair CLR 3 -3 65% -1 75.59 0.0
08 05:55 NW 22 16.09 Fair CLR 4 -4 56% -0 75.57 0.0
08 05:35 NW 20 16.09 Fair CLR 5 -4 53% 1 75.57 0.0
08 05:15 NW 22 16.09 A Few Clouds FEW090 5 -3 57% 1 75.57 0.0
08 04:55 W 19 16.09 Mostly Cloudy BKN090 6 -4 49% 3 75.54 0.0
08 04:35 W 17 16.09 Overcast SCT065 SCT075 OVC090 6 -4 49% 3 75.54 0.0
08 04:15 NW 6 16.09 Overcast BKN065 OVC080 4 -5 52% 75.57 0.0
08 03:55 Calm 16.09 Overcast FEW065 OVC080 3 -4 60% 75.57 0.0
08 03:35 Calm 16.09 Mostly Cloudy BKN080 BKN110 4 -5 52% 75.59 0.0
08 03:15 Calm 16.09 Mostly Cloudy BKN080 BKN120 3 -5 56% 75.59 0.0
08 02:55 Calm 16.09 Mostly Cloudy BKN085 BKN120 4 -6 48% 75.59 0.0
08 02:35 Calm 16.09 Mostly Cloudy FEW045 BKN085 BKN110 5 -8 39% 75.59 0.0
08 02:15 N 9 16.09 Mostly Cloudy FEW055 SCT075 BKN090 5 -5 49% 3 75.62 0.0
08 01:55 Calm 16.09 Overcast FEW060 OVC075 5 -7 42% 75.62 0.0
08 01:35 Calm 16.09 Overcast BKN075 OVC100 3 -7 48% 75.62 0.0
08 01:15 Calm 16.09 Mostly Cloudy SCT075 BKN100 5 -7 42% 75.59 0.0
08 00:55 Calm 16.09 Mostly Cloudy FEW075 BKN100 4 -7 45% 75.59 0.0
08 00:35 Calm 16.09 Overcast FEW080 OVC100 6 -6 42% 75.59 0.0
08 00:15 S 6 16.09 Overcast BKN080 OVC095 6 -6 42% 75.59 0.0
07 23:55 Calm 16.09 Overcast SCT075 OVC095 6 -7 39% 75.62 0.0
07 23:35 Calm 16.09 Overcast BKN075 OVC100 6 -8 36% 75.62 0.0
07 23:15 SW 7 16.09 Overcast FEW065 BKN075 OVC100 6 -8 36% 5 75.62 0.0
07 22:55 S 7 16.09 Overcast SCT070 BKN080 OVC100 6 -8 36% 5 75.62 0.0
07 22:35 S 6 16.09 Mostly Cloudy FEW047 FEW080 BKN100 7 -7 37% 75.64 0.0
07 22:15 Calm 16.09 Overcast FEW075 OVC095 9 -7 32% 75.64 0.0
07 21:55 Calm 16.09 Overcast OVC100 10 -9 26% 75.64 0.0
07 21:35 NE 7 16.09 Overcast OVC090 11 -10 22% 75.62 0.0
07 21:15 NE 9 16.09 Overcast OVC090 12 -10 21% 75.62 0.0
07 20:55 NE 11 16.09 Overcast OVC095 12 -10 21% 75.62 0.0
07 20:35 NE 11 G 22 16.09 Mostly Cloudy BKN100 13 -10 19% 75.62 0.0
07 20:15 NE 20 16.09 A Few Clouds FEW080 FEW120 14 -10 18% 75.62 0.0
07 19:55 NE 20 16.09 Mostly Cloudy BKN080 BKN120 14 -10 18% 75.62 0.0
07 19:35 NW 15 16.09 Mostly Cloudy BKN080 15 -11 16% 75.62 0.0
07 19:15 NW 15 16.09 Fair CLR 15 -11 16% 75.62 0.0
07 18:55 NW 20 16.09 A Few Clouds FEW095 15 -11 16% 75.62 0.0
07 18:35 NW 20 G 30 16.09 A Few Clouds FEW100 15 -12 14% 75.62 0.0
07 18:15 NW 15 G 30 16.09 A Few Clouds FEW110 16 -12 13% 75.62 0.0
07 17:55 NW 17 G 31 16.09 Fair CLR 15 -12 14% 75.62 0.0
07 17:35 N 19 G 35 16.09 Fair CLR 15 -12 14% 75.62 0.0
07 17:15 NW 26 16.09 Fair CLR 16 -12 13% 75.64 0.0
07 16:55 NW 28 16.09 Fair CLR 16 -12 13% 75.67 0.0
07 16:35 NW 20 G 37 16.09 Fair CLR 15 -12 14% 75.67 0.0
07 16:15 NW 19 G 33 16.09 Fair CLR 15 -12 14% 75.69 0.0
07 15:35 NW 22 16.09 Fair CLR 15 -12 14% 75.72 0.0
07 15:15 NW 17 G 39 16.09 Fair CLR 15 -11 16% 75.72 0.0
07 14:55 Vrbl 11 G 31 16.09 Fair CLR 14 -12 15% 75.74 0.0
07 14:35 N 19 G 30 16.09 Fair CLR 15 -11 16% 75.74 0.0
07 14:15 Vrbl 9 G 28 16.09 Fair CLR 13 -12 16% 75.74 0.0
07 13:55 NW 19 16.09 Fair CLR 13 -11 18% 75.74 0.0
07 13:35 N 11 G 28 16.09 Fair CLR 13 -11 18% 75.74 0.0
07 13:15 N 17 G 30 16.09 Fair CLR 13 -11 18% 75.77 0.0
07 12:55 NW 20 16.09 Fair CLR 13 -11 18% 75.79 0.0
07 12:35 NW 15 G 26 16.09 Fair CLR 13 -11 18% 75.79 0.0
07 12:15 Vrbl 9 G 26 16.09 Fair CLR 12 -10 21% 75.79 0.0
07 11:55 N 15 G 31 16.09 Fair CLR 12 -11 19% 75.82 0.0
07 11:35 NW 22 16.09 Fair CLR 11 -11 20% 75.82 0.0
07 11:15 NW 15 16.09 Fair CLR 10 -10 24% 8 75.82 0.0
07 10:55 Vrbl 11 G 26 16.09 Fair CLR 10 -11 22% 9 75.84 0.0
07 10:35 NW 11 G 24 16.09 Fair CLR 10 -11 22% 9 75.84 0.0
07 10:15 NW 13 G 24 16.09 Fair CLR 10 -11 22% 8 75.84 0.0
07 09:55 N 17 16.09 Fair CLR 9 -10 25% 7 75.84 0.0
07 09:35 NW 15 16.09 Fair CLR 9 -9 27% 7 75.84 0.0
07 09:15 NW 15 16.09 Fair CLR 8 -6 37% 6 75.84 0.0
07 08:55 NW 9 16.09 Fair CLR 6 -6 42% 4 75.84 0.0
07 08:35 Calm 16.09 Fair CLR 3 -3 65% 75.84 0.0
07 08:15 Calm 16.09 Fair CLR 1 -3 75% 75.84 0.0
07 07:55 Calm 16.09 Fair CLR 0 -4 75% 75.82 0.0
07 07:35 Calm 16.09 Fair CLR -2 -6 74% 75.82 0.0
07 07:15 Calm 16.09 Fair CLR -4 -6 86% 75.82 0.0
07 06:55 Calm 16.09 Fair CLR -4 -6 86% 75.79 0.0
07 06:35 Calm 16.09 Fair CLR -4 -7 80% 75.79 0.0
07 06:15 Calm 16.09 Fair CLR -4 -6 86% 75.79 0.0
07 05:55 Calm 16.09 Fair CLR -4 -6 86% 75.79 0.0
07 05:35 Calm 16.09 Partly Cloudy FEW032 SCT044 -5 -6 93% 75.79 0.0
07 05:15 Calm 16.09 Partly Cloudy FEW032 SCT041 SCT046 -4 -7 80% 75.82 0.0
07 04:55 Calm 16.09 Partly Cloudy FEW033 SCT043 -4 -7 80% 75.82 0.0
07 04:35 Calm 16.09 Mostly Cloudy SCT035 BKN045 -2 -6 74% 75.82 0.0
07 04:15 Calm 16.09 Mostly Cloudy FEW036 BKN045 -3 -7 74% 75.82 0.0
07 03:55 Calm 16.09 Partly Cloudy FEW036 SCT045 -4 -7 80% 75.82 0.0
07 03:35 Calm 16.09 Mostly Cloudy FEW035 SCT040 BKN046 -2 -4 86% 75.82 0.0
07 03:15 Calm 16.09 Mostly Cloudy FEW030 SCT036 BKN047 -3 -5 86% 75.82 0.0
07 02:55 Calm 16.09 Mostly Cloudy SCT036 BKN044 BKN049 -2 -7 69% 75.84 0.0
07 02:35 Calm 16.09 Mostly Cloudy FEW034 BKN045 -2 -7 69% 75.84 0.0
07 02:15 Calm 16.09 Mostly Cloudy FEW032 SCT042 BKN048 -3 -7 74% 75.82 0.0
07 01:55 Calm 16.09 Mostly Cloudy FEW035 BKN045 -2 -7 69% 75.82 0.0
07 01:35 Calm 16.09 Partly Cloudy FEW036 SCT044 SCT050 -1 -5 75% 75.84 0.0
07 01:15 NE 6 16.09 Mostly Cloudy FEW035 BKN044 BKN050 -1 -5 75% 75.84 0.0
Date Time (cdt) Wind (kph) Vis. (km) Weather Sky Cond. Air Dwpt Max. Min. Relative Humidity Wind Chill (°C) Heat Index (°C) altimeter (cm) sea level (mb) 1 hr 3 hr 6 hr
6 hour
Temperature (ºC) Pressure Precipitation (cm)